createdAt,value
2022-07-25T00:01:22.925Z,20.50
2022-07-25T00:03:52.060Z,20.40
2022-07-25T00:06:20.426Z,20.40
2022-07-25T00:08:48.489Z,20.30
2022-07-25T00:11:16.791Z,20.30
2022-07-25T00:13:45.021Z,20.20
2022-07-25T00:16:14.752Z,20.20
2022-07-25T00:18:43.384Z,20.10
2022-07-25T00:21:11.799Z,20.00
2022-07-25T00:23:40.047Z,20.00
2022-07-25T00:26:08.178Z,20.00
2022-07-25T00:28:36.479Z,19.90
2022-07-25T00:31:04.843Z,19.90
2022-07-25T00:33:34.599Z,19.90
2022-07-25T00:36:02.820Z,19.90
2022-07-25T00:38:31.420Z,19.90
2022-07-25T00:40:59.794Z,19.90
2022-07-25T00:43:28.030Z,19.90
2022-07-25T00:45:57.318Z,19.90
2022-07-25T00:48:25.944Z,19.80
2022-07-25T00:50:55.977Z,19.80
2022-07-25T00:53:24.357Z,19.80
2022-07-25T00:55:53.318Z,19.80
2022-07-25T00:58:21.634Z,19.80
2022-07-25T01:00:49.890Z,19.80
2022-07-25T01:03:18.578Z,19.80
2022-07-25T01:05:51.588Z,19.80
2022-07-25T01:08:23.883Z,19.80
2022-07-25T01:10:52.117Z,19.90
2022-07-25T01:13:20.878Z,19.90
2022-07-25T01:15:49.420Z,19.90
2022-07-25T01:18:19.083Z,19.90
2022-07-25T01:20:48.982Z,19.80
2022-07-25T01:23:17.423Z,19.80
2022-07-25T01:25:45.828Z,19.70
2022-07-25T01:28:14.290Z,19.70
2022-07-25T01:30:42.547Z,19.60
2022-07-25T01:33:10.760Z,19.50
2022-07-25T01:35:43.321Z,19.50
2022-07-25T01:38:13.773Z,19.40
2022-07-25T01:40:44.396Z,19.40
2022-07-25T01:43:12.997Z,19.40
2022-07-25T01:45:50.097Z,19.30
2022-07-25T01:48:18.341Z,19.30
2022-07-25T01:50:48.286Z,19.10
2022-07-25T01:53:18.728Z,19.10
2022-07-25T01:55:48.101Z,19.00
2022-07-25T01:58:16.297Z,19.00
2022-07-25T02:00:46.006Z,18.90
2022-07-25T02:03:32.379Z,18.90
2022-07-25T02:06:02.419Z,18.80
2022-07-25T02:08:32.663Z,18.70
2022-07-25T02:11:01.603Z,18.70
2022-07-25T02:13:29.832Z,18.70
2022-07-25T02:15:57.993Z,18.70
2022-07-25T02:18:26.241Z,18.60
2022-07-25T02:20:54.493Z,18.60
2022-07-25T02:23:22.893Z,18.60
2022-07-25T02:25:52.318Z,18.60
2022-07-25T02:28:20.530Z,18.50
2022-07-25T02:30:48.693Z,18.50
2022-07-25T02:33:17.075Z,18.40
2022-07-25T02:35:45.242Z,18.40
2022-07-25T02:38:19.426Z,18.40
2022-07-25T02:40:47.892Z,18.30
2022-07-25T02:43:17.552Z,18.40
2022-07-25T02:45:46.158Z,18.30
2022-07-25T02:48:14.909Z,18.20
2022-07-25T02:50:43.132Z,18.20
2022-07-25T02:53:11.397Z,18.20
2022-07-25T02:55:39.589Z,18.20
2022-07-25T02:58:07.721Z,18.20
2022-07-25T03:00:37.631Z,18.10
2022-07-25T03:03:05.937Z,18.10
2022-07-25T03:05:34.203Z,18.00
2022-07-25T03:08:02.391Z,18.00
2022-07-25T03:10:30.666Z,18.00
2022-07-25T03:12:59.007Z,17.90
2022-07-25T03:15:27.267Z,17.90
2022-07-25T03:17:56.933Z,17.90
2022-07-25T03:20:25.339Z,17.90
2022-07-25T03:22:53.553Z,17.90
2022-07-25T03:25:22.087Z,17.80
2022-07-25T03:27:51.633Z,17.90
2022-07-25T03:30:19.826Z,17.80
2022-07-25T03:32:47.907Z,17.90
2022-07-25T03:35:17.494Z,17.90
2022-07-25T03:37:45.803Z,17.90
2022-07-25T03:40:14.647Z,17.90
2022-07-25T03:42:44.130Z,17.90
2022-07-25T03:45:12.672Z,17.90
2022-07-25T03:47:40.942Z,17.90
2022-07-25T03:50:09.991Z,17.90
2022-07-25T03:52:39.567Z,17.90
2022-07-25T03:55:08.828Z,17.90
2022-07-25T03:57:37.913Z,18.00
2022-07-25T04:00:08.177Z,18.00
2022-07-25T04:02:37.681Z,18.00
2022-07-25T04:05:06.861Z,18.00
2022-07-25T04:07:35.335Z,18.00
2022-07-25T04:10:05.865Z,18.10
2022-07-25T04:12:34.117Z,18.10
2022-07-25T04:15:02.752Z,18.20
2022-07-25T04:17:30.887Z,18.20
2022-07-25T04:19:59.302Z,18.30
2022-07-25T04:22:27.594Z,18.40
2022-07-25T04:24:56.026Z,18.50
2022-07-25T04:27:25.639Z,18.50
2022-07-25T04:29:53.915Z,18.50
2022-07-25T04:32:23.636Z,18.60
2022-07-25T04:34:54.941Z,18.60
2022-07-25T04:37:23.217Z,18.70
2022-07-25T04:39:51.328Z,18.70
2022-07-25T04:42:19.538Z,18.70
2022-07-25T04:44:48.894Z,18.80
2022-07-25T04:47:16.970Z,18.80
2022-07-25T04:49:45.010Z,18.90
2022-07-25T04:52:13.232Z,19.00
2022-07-25T04:54:41.213Z,19.00
2022-07-25T04:57:09.271Z,19.20
2022-07-25T04:59:37.270Z,19.20
2022-07-25T05:02:06.884Z,19.30
2022-07-25T05:04:35.083Z,19.40
2022-07-25T05:07:11.467Z,19.40
2022-07-25T05:09:39.920Z,19.60
2022-07-25T05:12:08.615Z,19.70
2022-07-25T05:14:36.808Z,20.00
2022-07-25T05:17:06.525Z,20.30
2022-07-25T05:19:35.065Z,20.70
2022-07-25T05:22:03.849Z,21.00
2022-07-25T05:24:34.556Z,21.20
2022-07-25T05:27:03.105Z,21.40
2022-07-25T05:29:31.490Z,21.50
2022-07-25T05:32:00.162Z,21.70
2022-07-25T05:34:29.790Z,21.80
2022-07-25T05:36:58.059Z,21.90
2022-07-25T05:39:26.338Z,22.10
2022-07-25T05:41:54.448Z,22.20
2022-07-25T05:44:22.755Z,22.40
2022-07-25T05:46:50.975Z,22.70
2022-07-25T05:49:19.240Z,23.00
2022-07-25T05:51:48.896Z,23.10
2022-07-25T05:54:17.179Z,23.20
2022-07-25T05:56:45.470Z,23.40
2022-07-25T05:59:13.677Z,23.50
2022-07-25T06:01:41.999Z,23.70
2022-07-25T06:04:10.380Z,23.80
2022-07-25T06:06:38.593Z,24.00
2022-07-25T06:09:08.673Z,24.10
2022-07-25T06:11:50.999Z,24.30
2022-07-25T06:14:24.318Z,24.30
2022-07-25T06:16:53.358Z,24.40
2022-07-25T06:19:21.612Z,24.50
2022-07-25T06:21:49.883Z,24.70
2022-07-25T06:24:19.348Z,24.90
2022-07-25T06:26:47.504Z,25.10
2022-07-25T06:29:15.685Z,25.20
2022-07-25T06:31:46.962Z,25.20
2022-07-25T06:34:15.681Z,25.30
2022-07-25T06:36:43.810Z,25.40
2022-07-25T06:39:12.129Z,25.60
2022-07-25T06:41:41.664Z,25.80
2022-07-25T06:44:10.098Z,25.90
2022-07-25T06:46:38.573Z,26.00
2022-07-25T06:49:07.165Z,26.00
2022-07-25T06:51:35.931Z,26.10
2022-07-25T06:54:04.612Z,26.10
2022-07-25T06:56:33.179Z,26.20
2022-07-25T06:59:02.892Z,26.30
2022-07-25T07:01:31.177Z,26.60
2022-07-25T07:03:59.494Z,26.80
2022-07-25T07:06:27.890Z,26.80
2022-07-25T07:08:56.359Z,26.80
2022-07-25T07:11:24.679Z,26.90
2022-07-25T07:13:52.808Z,27.00
2022-07-25T07:16:22.555Z,27.10
2022-07-25T07:18:50.783Z,27.20
2022-07-25T07:21:21.086Z,27.20
2022-07-25T07:23:53.364Z,27.40
2022-07-25T07:26:22.171Z,27.40
2022-07-25T07:28:50.317Z,27.40
2022-07-25T07:31:19.146Z,27.30
2022-07-25T07:33:49.123Z,27.20
2022-07-25T07:36:18.063Z,27.00
2022-07-25T07:38:48.232Z,26.90
2022-07-25T07:41:16.601Z,26.80
2022-07-25T07:43:44.843Z,26.60
2022-07-25T07:46:13.190Z,26.50
2022-07-25T07:48:41.450Z,26.60
2022-07-25T07:51:11.193Z,26.50
2022-07-25T07:53:56.548Z,26.60
2022-07-25T07:56:24.702Z,26.70
2022-07-25T07:58:52.779Z,26.90
2022-07-25T08:01:21.030Z,27.00
2022-07-25T08:03:49.369Z,27.10
2022-07-25T08:06:19.001Z,27.20
2022-07-25T08:08:47.218Z,27.10
2022-07-25T08:11:15.491Z,27.10
2022-07-25T08:13:43.778Z,27.10
2022-07-25T08:16:13.794Z,27.10
2022-07-25T08:18:42.078Z,27.20
2022-07-25T08:21:13.110Z,27.30
2022-07-25T08:23:45.052Z,27.30
2022-07-25T08:26:14.287Z,27.20
2022-07-25T08:28:42.678Z,27.00
2022-07-25T08:31:11.309Z,27.00
2022-07-25T08:33:39.582Z,27.10
2022-07-25T08:36:10.797Z,27.20
2022-07-25T08:38:38.928Z,27.30
2022-07-25T08:41:08.531Z,27.30
2022-07-25T08:43:37.883Z,27.30
2022-07-25T08:46:07.745Z,27.20
2022-07-25T08:48:37.935Z,27.10
2022-07-25T08:51:06.832Z,27.10
2022-07-25T08:53:37.276Z,27.10
2022-07-25T08:56:13.293Z,27.30
2022-07-25T08:58:44.596Z,27.40
2022-07-25T09:01:13.461Z,27.70
2022-07-25T09:03:43.062Z,27.90
2022-07-25T09:06:19.223Z,28.10
2022-07-25T09:08:57.791Z,28.30
2022-07-25T09:11:33.706Z,28.60
2022-07-25T09:14:06.169Z,28.70
2022-07-25T09:16:39.996Z,29.10
2022-07-25T09:19:11.971Z,29.10
2022-07-25T09:21:41.619Z,28.90
2022-07-25T09:24:11.804Z,28.80
2022-07-25T09:26:51.862Z,28.70
2022-07-25T09:29:23.518Z,28.70
2022-07-25T09:31:52.728Z,28.90
2022-07-25T09:34:38.340Z,29.00
2022-07-25T09:37:08.966Z,29.10
2022-07-25T09:39:45.880Z,29.10
2022-07-25T09:42:23.188Z,29.20
2022-07-25T09:45:10.062Z,29.10
2022-07-25T09:47:39.992Z,29.00
2022-07-25T09:50:09.522Z,29.20
2022-07-25T09:52:39.335Z,28.90
2022-07-25T09:55:10.192Z,28.70
2022-07-25T09:57:38.382Z,28.90
2022-07-25T10:00:10.651Z,29.00
2022-07-25T10:02:48.302Z,29.10
2022-07-25T10:05:22.619Z,29.20
2022-07-25T10:07:54.110Z,29.50
2022-07-25T10:10:30.313Z,29.40
2022-07-25T10:13:11.037Z,29.60
2022-07-25T10:15:46.995Z,29.60
2022-07-25T10:18:16.263Z,29.70
2022-07-25T10:20:49.144Z,29.80
2022-07-25T10:23:22.234Z,30.00
2022-07-25T10:26:03.349Z,30.00
2022-07-25T10:28:40.292Z,29.80
2022-07-25T10:31:24.285Z,29.60
2022-07-25T10:33:54.908Z,29.50
2022-07-25T10:36:24.516Z,29.30
2022-07-25T10:38:53.997Z,29.30
2022-07-25T10:41:27.468Z,29.40
2022-07-25T10:43:58.482Z,29.60
2022-07-25T10:46:30.924Z,29.60
2022-07-25T10:49:01.390Z,29.70
2022-07-25T10:51:32.358Z,29.60
2022-07-25T10:54:00.716Z,29.50
2022-07-25T10:56:30.317Z,29.60
2022-07-25T10:59:00.684Z,29.70
2022-07-25T11:01:31.472Z,30.00
2022-07-25T11:04:02.390Z,30.20
2022-07-25T11:06:32.894Z,30.30
2022-07-25T11:09:04.767Z,30.40
2022-07-25T11:11:37.688Z,29.80
2022-07-25T11:14:07.102Z,29.80
2022-07-25T11:16:37.897Z,29.80
2022-07-25T11:19:16.473Z,29.60
2022-07-25T11:21:46.582Z,29.20
2022-07-25T11:24:16.271Z,29.40
2022-07-25T11:26:49.262Z,29.50
2022-07-25T11:29:22.059Z,29.40
2022-07-25T11:31:56.415Z,29.60
2022-07-25T11:34:27.624Z,29.60
2022-07-25T11:36:57.679Z,29.60
2022-07-25T11:39:28.449Z,29.60
2022-07-25T11:42:04.408Z,29.70
2022-07-25T11:44:38.261Z,29.80
2022-07-25T11:47:09.661Z,29.90
2022-07-25T11:49:48.535Z,30.20
2022-07-25T11:52:22.106Z,30.60
2022-07-25T11:54:58.683Z,30.50
2022-07-25T11:57:29.351Z,30.00
2022-07-25T11:59:58.138Z,29.70
2022-07-25T12:02:31.522Z,29.80
2022-07-25T12:05:02.283Z,30.40
2022-07-25T12:07:41.904Z,30.20
2022-07-25T12:10:12.776Z,30.10
2022-07-25T12:12:49.733Z,30.00
2022-07-25T12:15:21.212Z,29.70
2022-07-25T12:17:51.552Z,29.60
2022-07-25T12:20:21.686Z,29.50
2022-07-25T12:22:54.078Z,29.40
2022-07-25T12:25:27.556Z,29.30
2022-07-25T12:27:59.979Z,29.00
2022-07-25T12:30:28.874Z,28.80
2022-07-25T12:32:59.548Z,28.80
2022-07-25T12:35:28.059Z,28.60
2022-07-25T12:37:56.410Z,28.50
2022-07-25T12:40:25.125Z,28.30
2022-07-25T12:42:53.431Z,28.00
2022-07-25T12:45:23.160Z,28.00
2022-07-25T12:47:51.706Z,27.90
2022-07-25T12:50:21.438Z,27.90
2022-07-25T12:52:49.950Z,27.60
2022-07-25T12:55:20.447Z,27.80
2022-07-25T12:57:50.514Z,27.80
2022-07-25T13:00:21.387Z,28.00
2022-07-25T13:02:51.354Z,28.20
2022-07-25T13:05:21.230Z,28.20
2022-07-25T13:07:50.031Z,28.10
2022-07-25T13:10:19.888Z,28.20
2022-07-25T13:12:48.398Z,28.30
2022-07-25T13:15:18.102Z,28.70
2022-07-25T13:17:46.634Z,28.70
2022-07-25T13:20:15.699Z,28.70
2022-07-25T13:22:45.888Z,28.30
2022-07-25T13:25:14.049Z,28.20
2022-07-25T13:27:42.329Z,27.90
2022-07-25T13:30:11.698Z,28.00
2022-07-25T13:32:40.236Z,28.20
2022-07-25T13:35:09.154Z,28.20
2022-07-25T13:37:37.639Z,28.20
2022-07-25T13:40:09.143Z,28.10
2022-07-25T13:42:38.175Z,27.90
2022-07-25T13:45:07.279Z,27.80
2022-07-25T13:47:36.064Z,27.50
2022-07-25T13:50:04.629Z,27.30
2022-07-25T13:52:34.102Z,27.30
2022-07-25T13:55:02.595Z,27.00
2022-07-25T13:57:33.858Z,27.10
2022-07-25T14:00:02.083Z,27.40
2022-07-25T14:02:30.298Z,27.50
2022-07-25T14:05:03.456Z,27.50
2022-07-25T14:07:32.164Z,27.30
2022-07-25T14:10:00.189Z,27.20
2022-07-25T14:12:28.628Z,27.00
2022-07-25T14:14:58.040Z,26.80
2022-07-25T14:17:30.157Z,26.70
2022-07-25T14:19:58.906Z,26.70
2022-07-25T14:22:27.191Z,26.60
2022-07-25T14:24:55.195Z,26.30
2022-07-25T14:27:23.296Z,26.20
2022-07-25T14:29:51.349Z,26.10
2022-07-25T14:32:20.813Z,25.80
2022-07-25T14:34:48.827Z,25.90
2022-07-25T14:37:16.856Z,26.10
2022-07-25T14:39:45.542Z,25.80
2022-07-25T14:42:13.575Z,25.60
2022-07-25T14:44:41.906Z,25.40
2022-07-25T14:47:12.579Z,25.20
2022-07-25T14:49:43.538Z,25.10
2022-07-25T14:52:13.045Z,25.00
2022-07-25T14:54:41.914Z,25.00
2022-07-25T14:57:10.100Z,24.90
2022-07-25T14:59:38.396Z,24.90
2022-07-25T15:02:06.482Z,24.80
2022-07-25T15:04:34.718Z,24.80
2022-07-25T15:07:04.463Z,24.60
2022-07-25T15:09:32.460Z,24.40
2022-07-25T15:12:00.745Z,24.10
2022-07-25T15:14:29.380Z,24.10
2022-07-25T15:16:57.622Z,24.10
2022-07-25T15:19:26.416Z,24.20
2022-07-25T15:21:54.742Z,24.10
2022-07-25T15:24:28.957Z,24.30
2022-07-25T15:26:57.987Z,24.40
2022-07-25T15:29:27.753Z,24.90
2022-07-25T15:31:55.810Z,25.30
2022-07-25T15:34:23.906Z,25.30
2022-07-25T15:39:20.558Z,25.20
2022-07-25T15:41:49.894Z,25.30
2022-07-25T15:44:18.188Z,25.60
2022-07-25T15:46:46.626Z,25.70
2022-07-25T15:49:18.966Z,25.80
2022-07-25T15:51:47.015Z,25.80
2022-07-25T15:54:15.591Z,26.00
2022-07-25T15:56:43.656Z,25.90
2022-07-25T15:59:13.781Z,25.70
2022-07-25T16:01:43.426Z,25.80
2022-07-25T16:04:11.506Z,25.80
2022-07-25T16:06:40.040Z,25.60
2022-07-25T16:09:08.444Z,25.30
2022-07-25T16:11:38.253Z,25.20
2022-07-25T16:14:06.585Z,25.00
2022-07-25T16:16:37.588Z,24.90
2022-07-25T16:19:05.916Z,24.80
2022-07-25T16:21:34.891Z,24.80
2022-07-25T16:24:02.972Z,25.10
2022-07-25T16:26:31.133Z,25.40
2022-07-25T16:28:59.513Z,25.40
2022-07-25T16:31:27.714Z,25.50
2022-07-25T16:33:57.396Z,25.40
2022-07-25T16:36:26.470Z,25.10
2022-07-25T16:38:55.025Z,24.80
2022-07-25T16:41:23.125Z,24.60
2022-07-25T16:43:52.035Z,24.40
2022-07-25T16:46:20.102Z,24.20
2022-07-25T16:48:48.447Z,24.30
2022-07-25T16:51:17.864Z,24.30
2022-07-25T16:53:45.963Z,24.40
2022-07-25T16:56:14.263Z,24.40
2022-07-25T16:58:42.739Z,24.40
2022-07-25T17:01:10.765Z,24.60
2022-07-25T17:03:38.880Z,24.80
2022-07-25T17:06:08.192Z,24.90
2022-07-25T17:08:38.282Z,25.00
2022-07-25T17:11:07.414Z,25.10
2022-07-25T17:13:35.566Z,25.20
2022-07-25T17:16:05.117Z,25.00
2022-07-25T17:18:33.250Z,25.00
2022-07-25T17:21:01.325Z,24.90
2022-07-25T17:23:29.388Z,24.80
2022-07-25T17:25:58.800Z,24.80
2022-07-25T17:28:26.939Z,25.10
2022-07-25T17:30:55.014Z,25.10
2022-07-25T17:33:23.065Z,25.00
2022-07-25T17:35:52.172Z,25.20
2022-07-25T17:38:25.831Z,25.30
2022-07-25T17:40:54.465Z,25.00
2022-07-25T17:43:23.902Z,25.00
2022-07-25T17:45:51.891Z,24.70
2022-07-25T17:48:19.894Z,24.60
2022-07-25T17:50:47.939Z,24.50
2022-07-25T17:53:18.009Z,24.40
2022-07-25T17:55:46.819Z,24.70
2022-07-25T17:58:15.182Z,24.70
2022-07-25T18:00:44.893Z,24.90
2022-07-25T18:03:13.307Z,25.00
2022-07-25T18:05:41.449Z,24.90
2022-07-25T18:08:11.453Z,24.70
2022-07-25T18:10:39.904Z,24.30
2022-07-25T18:13:08.201Z,24.20
2022-07-25T18:15:37.386Z,24.20
2022-07-25T18:18:10.409Z,24.10
2022-07-25T18:20:41.009Z,23.90
2022-07-25T18:23:09.218Z,23.90
2022-07-25T18:25:37.494Z,24.00
2022-07-25T18:28:06.630Z,23.90
2022-07-25T18:30:35.151Z,23.70
2022-07-25T18:33:03.155Z,23.50
2022-07-25T18:35:32.776Z,23.30
2022-07-25T18:38:01.749Z,23.20
2022-07-25T18:40:30.324Z,23.00
2022-07-25T18:42:58.637Z,22.90
2022-07-25T18:45:26.806Z,22.80
2022-07-25T18:47:55.214Z,22.60
2022-07-25T18:50:23.397Z,22.50
2022-07-25T18:52:53.082Z,22.30
2022-07-25T18:55:21.314Z,22.30
2022-07-25T18:57:49.939Z,22.20
2022-07-25T19:00:18.811Z,22.20
2022-07-25T19:02:47.020Z,22.10
2022-07-25T19:05:15.472Z,22.00
2022-07-25T19:07:43.811Z,22.00
2022-07-25T19:10:13.656Z,21.90
2022-07-25T19:12:41.919Z,21.90
2022-07-25T19:15:11.076Z,21.90
2022-07-25T19:17:39.452Z,21.80
2022-07-25T19:20:09.177Z,21.90
2022-07-25T19:22:37.378Z,21.90
2022-07-25T19:25:08.376Z,21.80
2022-07-25T19:27:38.490Z,21.80
2022-07-25T19:30:08.500Z,21.80
2022-07-25T19:32:37.347Z,21.80
2022-07-25T19:35:06.208Z,21.80
2022-07-25T19:37:34.594Z,21.80
2022-07-25T19:40:03.145Z,21.80
2022-07-25T19:42:31.731Z,21.70
2022-07-25T19:45:01.475Z,21.70
2022-07-25T19:47:29.784Z,21.70
2022-07-25T19:49:58.228Z,21.60
2022-07-25T19:52:26.404Z,21.60
2022-07-25T19:54:55.153Z,21.60
2022-07-25T19:57:23.329Z,21.60
2022-07-25T19:59:51.607Z,21.50
2022-07-25T20:02:21.237Z,21.50
2022-07-25T20:04:49.598Z,21.40
2022-07-25T20:07:17.735Z,21.40
2022-07-25T20:09:45.969Z,21.30
2022-07-25T20:12:14.193Z,21.30
2022-07-25T20:14:42.325Z,21.20
2022-07-25T20:17:11.618Z,21.10
2022-07-25T20:19:41.158Z,21.00
2022-07-25T20:22:09.122Z,21.00
2022-07-25T20:24:37.450Z,20.90
2022-07-25T20:27:07.099Z,20.80
2022-07-25T20:29:35.140Z,20.80
2022-07-25T20:32:04.190Z,20.80
2022-07-25T20:34:32.472Z,20.80
2022-07-25T20:37:01.854Z,20.80
2022-07-25T20:39:29.943Z,20.70
2022-07-25T20:41:58.009Z,20.60
2022-07-25T20:44:26.086Z,20.60
2022-07-25T20:46:54.202Z,20.60
2022-07-25T20:49:22.502Z,20.50
2022-07-25T20:51:54.390Z,20.50
2022-07-25T20:54:24.137Z,20.50
2022-07-25T20:56:53.122Z,20.50
2022-07-25T20:59:21.169Z,20.40
2022-07-25T21:01:49.271Z,20.30
2022-07-25T21:04:18.737Z,20.30
2022-07-25T21:06:47.247Z,20.30
2022-07-25T21:09:16.697Z,20.30
2022-07-25T21:11:46.197Z,20.20
2022-07-25T21:14:14.491Z,20.20
2022-07-25T21:16:42.623Z,20.20
2022-07-25T21:19:11.242Z,20.20
2022-07-25T21:21:39.437Z,20.20
2022-07-25T21:24:08.351Z,20.20
2022-07-25T21:26:37.054Z,20.20
2022-07-25T21:29:07.423Z,20.10
2022-07-25T21:31:35.975Z,20.10
2022-07-25T21:34:04.297Z,20.10
2022-07-25T21:36:32.597Z,20.10
2022-07-25T21:39:00.994Z,20.10
2022-07-25T21:41:29.288Z,20.00
2022-07-25T21:43:58.247Z,20.00
2022-07-25T21:46:28.025Z,20.00
2022-07-25T21:49:14.428Z,19.90
2022-07-25T21:51:42.978Z,19.90
2022-07-25T21:54:11.892Z,19.90
2022-07-25T21:56:41.374Z,19.90
2022-07-25T21:59:09.882Z,19.90
2022-07-25T22:01:40.277Z,19.90
2022-07-25T22:04:08.486Z,19.90
2022-07-25T22:06:36.986Z,19.90
2022-07-25T22:09:05.804Z,19.80
2022-07-25T22:11:38.396Z,19.90
2022-07-25T22:14:11.370Z,19.80
2022-07-25T22:16:41.054Z,19.80
2022-07-25T22:19:09.636Z,19.80
2022-07-25T22:21:38.190Z,19.70
2022-07-25T22:24:07.092Z,19.70
2022-07-25T22:26:35.392Z,19.70
2022-07-25T22:29:03.658Z,19.70
2022-07-25T22:31:32.518Z,19.70
2022-07-25T22:34:02.199Z,19.70
2022-07-25T22:36:30.565Z,19.70
2022-07-25T22:38:58.917Z,19.60
2022-07-25T22:41:27.901Z,19.60
2022-07-25T22:43:57.224Z,19.60
2022-07-25T22:46:26.837Z,19.50
2022-07-25T22:48:55.223Z,19.50
2022-07-25T22:51:25.530Z,19.40
2022-07-25T22:53:53.918Z,19.40
2022-07-25T22:56:22.268Z,19.40
2022-07-25T22:58:50.590Z,19.30
2022-07-25T23:01:19.188Z,19.30
2022-07-25T23:03:49.945Z,19.20
2022-07-25T23:06:18.864Z,19.20
2022-07-25T23:08:49.031Z,19.10
2022-07-25T23:11:17.753Z,19.10
2022-07-25T23:13:46.125Z,19.00
2022-07-25T23:16:14.453Z,18.90
2022-07-25T23:18:42.893Z,18.90
2022-07-25T23:21:11.289Z,18.90
2022-07-25T23:23:39.558Z,18.90
2022-07-25T23:26:09.186Z,18.80
2022-07-25T23:28:37.442Z,18.80
2022-07-25T23:31:05.886Z,18.70
2022-07-25T23:33:34.275Z,18.70
2022-07-25T23:36:02.818Z,18.70
2022-07-25T23:38:31.092Z,18.60
2022-07-25T23:40:59.360Z,18.60
2022-07-25T23:43:55.554Z,18.60
2022-07-25T23:46:18.317Z,18.60
2022-07-25T23:48:56.339Z,18.60
2022-07-25T23:51:24.761Z,18.60
2022-07-25T23:53:53.172Z,18.60
2022-07-25T23:56:21.486Z,18.60
2022-07-25T23:58:51.718Z,18.60
